Oaks, PA (19456)

10:49 AM EST on January 28, 2015 (GMT -0500)
APRSWXNET Phoenixville PA US | Change Station
CLOSE
Current Station
Personal Weather Station
Location: Mont Clare, PA
Elevation: 141 ft
Nearby Weather Stations

Elev 141 ft 40.13 °N, 75.51 °W | Updated 46 minutes ago

Clear
Clear
22 °F
Feels Like 22 °F
N
1
Wind Variable Wind from NW
Gusts 5.0 mph

Today
High -- | Low -- °F
--% Chance of Precip.
Yesterday
High -- | Low -- °F
Precip. -- in
7:14 AM 5:15 PM
Waxing Gibbous, 65% visible
Pressure 30.15 in
Visibility 10.0 miles
Clouds Clear
Windchill 22 °F
Dew Point 4 °F
Humidity 45%
Rainfall 0.05 in
Snow Depth Not available.
UV 2 out of 12
Pollen .10 out of 12
Air Quality Not available.
Flu Activity Not available.
METAR KPTW 281454Z AUTO 31012G20KT 10SM CLR M06/M17 A3014 RMK AO2 SLP210 T10611172 51025

More Conditions Fewer Conditions

Pressure 30.15 in
Visibility 10.0 miles
Clouds Clear
Windchill 22 °F
Dew Point 4 °F
Humidity 45%
Rainfall 0.05 in
Snow Depth Not available.
UV 2 out of 12
Pollen .10 out of 12
Air Quality Not available.
Flu Activity Not available.
METAR KPTW 281454Z AUTO 31012G20KT 10SM CLR M06/M17 A3014 RMK AO2 SLP210 T10611172 51025

More Conditions Fewer Conditions

10-Day Weather Forecast

Almanac

Astronomy

Jan. 28, 2015 Rise Set
Actual Time
Civil Twilight
Nautical Twilight
Astronomical Twilight
Moon
Length of Visible Light
Length of Day
Tomorrow will be .
, % of the Moon is Illuminated

Today's Extremes

State Highs State Lows

Community

WunderPhotos

Upload Photos

1,791,177 photos uploaded!

WunderBlogs® & News

Nearby

Air Quality

  Air Quality AQ Index Pollutant
Not available.

Snow Depth

Station Depth Elevation

Earthquake Activity

City Distance Mag. Time & Date
Minimum magnitude displayed is 2.5.

Coastal Water Temperatures

Place Temperature

Nearby Weather Stations